Time;durP1;ratioP1;P1;durP2;ratioP2;P2;SDS_P1;SDS_P2;PMS_P1;PMS_P2;Temp;Humidity;BMP_temperature;BMP_pressure;BME280_temperature;BME280_humidity;BME280_pressure;Samples;Min_cycle;Max_cycle;Signal;HPM_P1;HPM_P2
2021/06/30 00:01:13;;;;;;;0.50;0.10;;;19.20;62.40;;;;;;5029107;28;20491;-85
2021/06/30 00:03:39;;;;;;;0.10;0.00;;;19.10;62.50;;;;;;5015322;28;20030;-85
2021/06/30 00:06:05;;;;;;;0.40;0.10;;;19.10;62.80;;;;;;5029766;28;20026;-85
2021/06/30 00:08:32;;;;;;;0.57;0.17;;;19.10;62.60;;;;;;5014671;28;20033;-85
2021/06/30 00:10:58;;;;;;;0.82;0.30;;;19.10;62.60;;;;;;5014563;28;20041;-85
2021/06/30 00:13:24;;;;;;;2.05;0.60;;;19.10;62.70;;;;;;5029928;28;20034;-87
2021/06/30 00:15:51;;;;;;;1.35;0.70;;;19.10;62.90;;;;;;5013955;28;20038;-84
2021/06/30 00:18:18;;;;;;;0.98;0.43;;;19.10;63.00;;;;;;5014769;28;20053;-85
2021/06/30 00:20:44;;;;;;;4.20;0.68;;;19.10;63.10;;;;;;5029538;28;20033;-84
2021/06/30 00:23:10;;;;;;;1.50;0.30;;;19.10;63.20;;;;;;5014312;28;20036;-84
2021/06/30 00:25:36;;;;;;;2.75;0.45;;;19.00;63.30;;;;;;5029615;28;20032;-85
2021/06/30 00:28:02;;;;;;;1.75;0.43;;;19.00;63.40;;;;;;5014219;28;20041;-85
2021/06/30 00:30:29;;;;;;;230.93;21.15;;;19.00;63.60;;;;;;5013874;28;20157;-84
2021/06/30 00:32:55;;;;;;;144.82;13.73;;;18.90;63.60;;;;;;5029172;28;20022;-86
2021/06/30 00:35:21;;;;;;;0.08;0.00;;;18.90;63.80;;;;;;5014092;28;20041;-85
2021/06/30 00:37:47;;;;;;;1.00;0.88;;;18.80;64.00;;;;;;5029406;28;20022;-84
2021/06/30 00:40:13;;;;;;;0.57;0.08;;;18.80;64.20;;;;;;5029069;28;20511;-82
2021/06/30 00:42:39;;;;;;;0.10;0.00;;;18.80;64.30;;;;;;5014537;28;20026;-85
2021/06/30 00:45:06;;;;;;;0.15;0.08;;;18.80;64.40;;;;;;5028770;28;20388;-85
2021/06/30 00:47:33;;;;;;;4.22;0.47;;;18.80;64.40;;;;;;5013880;28;20022;-84
2021/06/30 00:49:59;;;;;;;0.17;0.00;;;18.70;64.40;;;;;;5029120;28;20026;-84
2021/06/30 00:52:25;;;;;;;2.17;0.10;;;18.70;64.40;;;;;;5013753;28;20030;-85
2021/06/30 00:54:51;;;;;;;0.60;0.30;;;18.70;64.60;;;;;;5028722;28;20034;-85
2021/06/30 00:57:18;;;;;;;0.77;0.20;;;18.70;64.60;;;;;;5013326;28;20049;-84
2021/06/30 00:59:45;;;;;;;0.43;0.10;;;18.70;64.70;;;;;;5013472;28;20056;-84
2021/06/30 01:02:11;;;;;;;1.00;0.10;;;18.70;64.80;;;;;;5008028;28;20404;-83
2021/06/30 01:04:37;;;;;;;1.27;0.45;;;18.60;64.80;;;;;;5001571;28;20026;-84
2021/06/30 01:07:03;;;;;;;0.25;0.10;;;18.60;64.90;;;;;;5013755;28;20061;-84
2021/06/30 01:09:30;;;;;;;1.27;0.40;;;18.60;65.00;;;;;;5014106;28;20030;-84
2021/06/30 01:11:59;;;;;;;0.75;0.30;;;18.50;65.00;;;;;;5028746;28;20025;-84
2021/06/30 01:14:30;;;;;;;0.75;0.15;;;18.50;65.10;;;;;;5013201;28;20034;-85
2021/06/30 01:16:56;;;;;;;0.85;0.28;;;18.50;65.10;;;;;;5012014;28;20481;-85
2021/06/30 01:19:22;;;;;;;0.13;0.03;;;18.50;65.20;;;;;;5028279;28;20042;-84
2021/06/30 01:21:49;;;;;;;0.15;0.00;;;18.50;65.20;;;;;;5013604;28;20486;-84
2021/06/30 01:24:15;;;;;;;0.60;0.05;;;18.50;65.30;;;;;;5011703;28;20033;-84
2021/06/30 01:26:42;;;;;;;1.40;0.10;;;18.50;65.30;;;;;;5013103;28;20388;-84
2021/06/30 01:29:08;;;;;;;0.28;0.10;;;18.50;65.30;;;;;;5028170;28;20052;-84
2021/06/30 01:31:34;;;;;;;0.40;0.00;;;18.50;65.30;;;;;;5027705;28;20026;-86
2021/06/30 01:34:00;;;;;;;1.00;0.10;;;18.50;65.30;;;;;;5013022;28;20034;-84
2021/06/30 01:36:26;;;;;;;0.57;0.10;;;18.50;65.30;;;;;;5012456;28;20365;-85
2021/06/30 01:38:52;;;;;;;0.25;0.00;;;18.50;65.40;;;;;;5012833;28;20408;-84
2021/06/30 01:41:18;;;;;;;0.70;0.10;;;18.50;65.40;;;;;;5012944;28;20034;-84
2021/06/30 01:43:44;;;;;;;15.25;0.30;;;18.50;65.40;;;;;;5012455;28;20041;-86
2021/06/30 01:46:10;;;;;;;0.80;0.13;;;18.50;65.40;;;;;;4996882;28;20042;-83
2021/06/30 01:48:36;;;;;;;0.47;0.10;;;18.50;65.50;;;;;;5012155;28;20030;-84
2021/06/30 01:51:03;;;;;;;0.35;0.17;;;18.50;65.50;;;;;;5012840;28;20038;-88
2021/06/30 01:53:29;;;;;;;0.28;0.00;;;18.50;65.60;;;;;;5027973;28;20411;-84
2021/06/30 01:55:55;;;;;;;0.32;0.10;;;18.50;65.60;;;;;;5012818;28;20045;-85
2021/06/30 01:58:22;;;;;;;0.28;0.05;;;18.50;65.70;;;;;;5012191;28;20468;-84
2021/06/30 02:00:52;;;;;;;0.43;0.10;;;18.50;65.80;;;;;;5027736;28;20411;-84
2021/06/30 02:03:18;;;;;;;0.65;0.15;;;18.40;65.80;;;;;;5007721;28;20038;-82
2021/06/30 02:05:45;;;;;;;1.00;0.10;;;18.30;65.90;;;;;;5004082;28;20054;-85
2021/06/30 02:08:11;;;;;;;0.10;0.00;;;18.30;66.10;;;;;;5003636;28;20041;-81
2021/06/30 02:10:37;;;;;;;0.32;0.13;;;18.30;66.90;;;;;;5010641;28;20039;-85
2021/06/30 02:13:05;;;;;;;1.08;0.05;;;18.30;66.10;;;;;;5008682;28;20045;-85
2021/06/30 02:15:32;;;;;;;0.10;0.00;;;18.30;66.10;;;;;;5010378;28;20033;-85
2021/06/30 02:17:58;;;;;;;0.20;0.00;;;18.30;66.10;;;;;;5006256;28;20493;-85
2021/06/30 02:20:25;;;;;;;0.40;0.03;;;18.30;66.10;;;;;;4997857;28;20492;-85
2021/06/30 02:22:51;;;;;;;0.15;0.08;;;18.30;66.10;;;;;;5003680;28;20027;-84
2021/06/30 02:25:22;;;;;;;0.00;0.00;;;18.30;66.10;;;;;;4997533;28;20513;-85
2021/06/30 02:27:48;;;;;;;0.43;0.10;;;18.30;66.20;;;;;;5007456;28;20042;-84
2021/06/30 02:30:19;;;;;;;0.25;0.10;;;18.30;66.20;;;;;;5009410;28;20046;-86
2021/06/30 02:32:46;;;;;;;;;;;18.30;66.20;;;;;;5002456;28;20030;-84
2021/06/30 02:35:14;;;;;;;0.10;0.00;;;18.30;66.20;;;;;;5003342;28;19909;-84
2021/06/30 02:37:40;;;;;;;0.10;0.00;;;18.20;66.10;;;;;;5042912;28;20022;-85
2021/06/30 02:40:07;;;;;;;0.80;0.32;;;18.20;66.20;;;;;;5012081;28;20049;-85
2021/06/30 02:42:33;;;;;;;0.55;0.22;;;18.10;66.20;;;;;;5012344;28;20041;-85
2021/06/30 02:44:59;;;;;;;0.30;0.08;;;18.10;66.40;;;;;;5011921;28;20397;-85
2021/06/30 02:47:25;;;;;;;0.10;0.00;;;18.10;66.40;;;;;;4992169;28;20042;-86
2021/06/30 02:49:52;;;;;;;0.93;0.20;;;18.00;66.50;;;;;;4992738;28;20038;-85
2021/06/30 02:52:18;;;;;;;0.32;0.10;;;18.10;66.60;;;;;;4991005;28;20046;-85
2021/06/30 02:54:44;;;;;;;1.70;0.30;;;18.00;66.60;;;;;;4992702;28;20026;-84
2021/06/30 02:57:10;;;;;;;0.22;0.10;;;18.00;66.70;;;;;;4990941;28;20031;-83
2021/06/30 02:59:36;;;;;;;0.85;0.10;;;17.90;66.70;;;;;;4992360;28;20417;-84
2021/06/30 03:02:02;;;;;;;0.10;0.00;;;17.90;66.70;;;;;;4991902;28;20031;-86
2021/06/30 03:04:28;;;;;;;0.10;0.00;;;17.90;66.80;;;;;;4992320;28;20034;-84
2021/06/30 03:06:54;;;;;;;0.63;0.10;;;17.90;66.90;;;;;;4992378;28;20033;-86
2021/06/30 03:09:22;;;;;;;0.65;0.20;;;17.80;66.90;;;;;;4991426;28;20031;-84
2021/06/30 03:11:48;;;;;;;0.45;0.28;;;17.80;67.00;;;;;;4991824;28;20023;-85
2021/06/30 03:14:14;;;;;;;0.85;0.28;;;17.80;67.00;;;;;;4992089;28;20037;-79
2021/06/30 03:16:40;;;;;;;0.63;0.10;;;17.80;67.10;;;;;;5005133;28;20034;-85
2021/06/30 03:19:06;;;;;;;0.20;0.00;;;17.70;67.10;;;;;;5011659;28;20045;-85
2021/06/30 03:21:32;;;;;;;1.48;0.10;;;17.70;67.20;;;;;;5010973;28;20057;-84
2021/06/30 03:23:58;;;;;;;0.65;0.00;;;17.70;67.30;;;;;;5011549;28;20048;-83
2021/06/30 03:26:25;;;;;;;1.10;0.38;;;17.70;67.40;;;;;;5013883;28;20061;-84
2021/06/30 03:28:51;;;;;;;3.88;0.28;;;17.70;67.40;;;;;;5030666;28;20057;-84
2021/06/30 03:31:17;;;;;;;0.28;0.03;;;17.70;67.40;;;;;;5030186;28;20050;-84
2021/06/30 03:33:43;;;;;;;0.20;0.05;;;17.60;67.50;;;;;;5014601;28;20403;-85
2021/06/30 03:36:09;;;;;;;1.05;0.20;;;17.60;67.60;;;;;;5015417;28;20053;-83
2021/06/30 03:38:35;;;;;;;0.50;0.00;;;17.60;67.60;;;;;;5015190;28;20049;-84
2021/06/30 03:41:02;;;;;;;0.57;0.30;;;17.60;67.60;;;;;;5015314;28;20283;-84
2021/06/30 03:43:28;;;;;;;0.55;0.17;;;17.60;67.60;;;;;;5015290;28;20030;-84
2021/06/30 03:45:54;;;;;;;0.47;0.15;;;17.60;67.60;;;;;;5014785;28;20038;-84
2021/06/30 03:48:21;;;;;;;0.30;0.00;;;17.60;67.70;;;;;;5014287;28;20037;-84
2021/06/30 03:50:47;;;;;;;0.43;0.17;;;17.60;67.70;;;;;;5015101;28;20404;-84
2021/06/30 03:53:13;;;;;;;0.43;0.10;;;17.60;67.70;;;;;;5014483;28;20037;-84
2021/06/30 03:55:39;;;;;;;0.70;0.32;;;17.60;67.70;;;;;;5014843;28;20033;-84
2021/06/30 03:58:05;;;;;;;1.45;0.32;;;17.60;67.70;;;;;;5014883;28;20033;-84
2021/06/30 04:00:31;;;;;;;0.40;0.13;;;17.60;67.80;;;;;;5013667;28;20038;-85
2021/06/30 04:02:57;;;;;;;0.63;0.00;;;17.50;67.70;;;;;;5014608;28;20045;-84
2021/06/30 04:05:23;;;;;;;0.03;0.03;;;17.60;67.90;;;;;;5010182;28;20046;-85
2021/06/30 04:07:50;;;;;;;0.75;0.17;;;17.50;67.70;;;;;;5018967;28;20038;-84
2021/06/30 04:10:19;;;;;;;0.43;0.00;;;17.60;67.90;;;;;;5029787;28;20038;-86
2021/06/30 04:12:45;;;;;;;0.25;0.08;;;17.50;67.80;;;;;;5014849;28;20034;-86
2021/06/30 04:15:11;;;;;;;1.08;0.38;;;17.50;67.90;;;;;;5012980;28;20029;-84
2021/06/30 04:17:37;;;;;;;0.00;0.00;;;17.50;67.90;;;;;;5014455;28;20056;-89
2021/06/30 04:20:08;;;;;;;1.05;0.13;;;17.50;68.00;;;;;;5012971;28;20046;-83
2021/06/30 04:22:34;;;;;;;0.35;0.20;;;17.50;68.10;;;;;;5014267;28;20026;-86
2021/06/30 04:25:02;;;;;;;0.28;0.03;;;17.50;68.10;;;;;;5014488;28;20037;-86
2021/06/30 04:27:28;;;;;;;1.48;0.13;;;17.50;68.90;;;;;;5014969;28;20038;-86
2021/06/30 04:29:55;;;;;;;0.32;0.20;;;17.40;68.10;;;;;;5014032;28;20413;-84
2021/06/30 04:32:21;;;;;;;0.93;0.20;;;17.40;68.10;;;;;;5028916;28;20042;-85
2021/06/30 04:34:47;;;;;;;0.70;0.10;;;17.40;68.10;;;;;;5014253;28;20025;-86
2021/06/30 04:37:13;;;;;;;0.30;0.15;;;17.50;68.20;;;;;;5013493;28;20037;-86
2021/06/30 04:39:39;;;;;;;0.88;0.22;;;17.40;68.10;;;;;;5013593;28;20054;-86
2021/06/30 04:42:05;;;;;;;0.15;0.00;;;17.50;68.20;;;;;;5014053;28;20480;-86
2021/06/30 04:44:31;;;;;;;0.10;0.00;;;17.50;68.20;;;;;;5014171;28;20034;-86
2021/06/30 04:46:57;;;;;;;3.15;0.30;;;17.50;68.20;;;;;;5012850;28;20026;-85
2021/06/30 04:49:23;;;;;;;1.23;0.30;;;17.50;68.20;;;;;;4994373;28;20099;-86
2021/06/30 04:51:49;;;;;;;0.10;0.00;;;17.50;68.20;;;;;;4994122;28;20026;-86
2021/06/30 04:54:17;;;;;;;0.47;0.20;;;17.50;68.20;;;;;;4994646;28;20035;-87
2021/06/30 04:56:43;;;;;;;9.43;0.38;;;17.50;68.30;;;;;;5009154;28;20496;-86
2021/06/30 04:59:09;;;;;;;0.80;0.28;;;17.50;68.40;;;;;;5009204;28;20042;-86
2021/06/30 05:01:36;;;;;;;0.77;0.20;;;17.40;68.40;;;;;;5006363;28;20053;-86
2021/06/30 05:04:05;;;;;;;2.00;0.20;;;17.40;68.40;;;;;;5029091;28;20393;-86
2021/06/30 05:06:33;;;;;;;0.50;0.10;;;17.40;68.50;;;;;;5012618;28;20037;-86
2021/06/30 05:09:00;;;;;;;0.52;0.22;;;17.40;68.50;;;;;;5028325;28;20053;-86
2021/06/30 05:11:26;;;;;;;0.30;0.08;;;17.40;68.50;;;;;;5028654;28;20049;-86
2021/06/30 05:13:52;;;;;;;0.55;0.10;;;17.40;68.50;;;;;;5013397;28;20483;-87
2021/06/30 05:16:18;;;;;;;0.85;0.00;;;17.50;68.50;;;;;;5012908;28;20053;-86
2021/06/30 05:18:44;;;;;;;0.20;0.10;;;17.50;68.60;;;;;;5028982;28;20504;-87
2021/06/30 05:21:10;;;;;;;7.20;0.30;;;17.50;68.60;;;;;;5013396;28;20037;-85
2021/06/30 05:23:37;;;;;;;0.25;0.10;;;17.50;68.60;;;;;;5028551;28;20503;-86
2021/06/30 05:26:03;;;;;;;0.65;0.00;;;17.50;68.50;;;;;;5013245;28;20022;-86
2021/06/30 05:28:29;;;;;;;1.48;0.13;;;17.50;68.50;;;;;;5013251;28;20026;-87
2021/06/30 05:30:55;;;;;;;0.85;0.20;;;17.50;68.50;;;;;;5012781;28;20068;-87
2021/06/30 05:33:21;;;;;;;1.27;0.15;;;17.50;68.50;;;;;;5013411;28;20033;-84
2021/06/30 05:35:49;;;;;;;0.85;0.10;;;17.60;68.60;;;;;;5012677;28;20025;-86
2021/06/30 05:38:15;;;;;;;1.58;0.28;;;17.60;68.60;;;;;;5012929;28;20022;-86
2021/06/30 05:40:41;;;;;;;1.17;0.38;;;17.60;68.50;;;;;;5012965;28;20030;-85
2021/06/30 05:43:07;;;;;;;0.75;0.20;;;17.60;68.50;;;;;;5028426;28;20022;-86
2021/06/30 05:45:33;;;;;;;0.35;0.05;;;17.70;68.60;;;;;;5012954;28;20033;-86
2021/06/30 05:47:59;;;;;;;1.08;0.40;;;17.80;68.60;;;;;;5008574;28;20053;-86
2021/06/30 05:50:25;;;;;;;0.50;0.00;;;17.80;68.50;;;;;;5005874;28;20053;-86
2021/06/30 05:52:51;;;;;;;0.43;0.20;;;17.80;68.50;;;;;;5012652;28;20022;-87
2021/06/30 05:55:17;;;;;;;0.65;0.17;;;17.80;68.50;;;;;;5012647;28;20515;-84
2021/06/30 05:57:43;;;;;;;0.20;0.00;;;17.80;68.50;;;;;;5028359;28;20045;-84
2021/06/30 06:00:12;;;;;;;0.40;0.10;;;17.80;68.60;;;;;;5011230;28;20048;-84
2021/06/30 06:02:38;;;;;;;3.75;0.22;;;17.90;68.70;;;;;;5027518;28;20022;-84
2021/06/30 06:05:04;;;;;;;2.42;0.40;;;17.90;68.80;;;;;;5012257;28;20472;-86
2021/06/30 06:07:31;;;;;;;1.67;0.32;;;17.90;68.80;;;;;;5028022;28;20028;-84
2021/06/30 06:09:58;;;;;;;1.65;0.15;;;17.90;68.80;;;;;;5011304;28;20045;-84
2021/06/30 06:12:25;;;;;;;4.82;0.30;;;17.90;68.80;;;;;;5012957;28;20037;-84
2021/06/30 06:14:51;;;;;;;0.93;0.40;;;17.90;68.80;;;;;;5012464;28;20401;-84
2021/06/30 06:17:18;;;;;;;1.65;0.73;;;18.00;68.80;;;;;;5027141;28;20049;-84
2021/06/30 06:19:44;;;;;;;2.42;0.40;;;18.00;68.90;;;;;;5027211;28;20492;-87
2021/06/30 06:22:10;;;;;;;2.67;0.32;;;18.00;68.80;;;;;;5012224;28;20033;-84
2021/06/30 06:24:36;;;;;;;2.17;0.25;;;18.10;68.70;;;;;;4992250;28;20374;-85
2021/06/30 06:27:02;;;;;;;1.02;0.20;;;18.10;68.60;;;;;;5010363;28;20491;-84
2021/06/30 06:29:28;;;;;;;0.73;0.15;;;18.20;68.60;;;;;;5012053;28;20057;-84
2021/06/30 06:31:55;;;;;;;0.50;0.10;;;18.20;68.60;;;;;;5011696;28;20030;-84
2021/06/30 06:34:22;;;;;;;1.42;0.38;;;18.30;68.70;;;;;;5027086;28;20025;-84
2021/06/30 06:36:48;;;;;;;1.08;0.57;;;18.30;68.70;;;;;;5011137;28;20042;-84
2021/06/30 06:39:15;;;;;;;0.73;0.30;;;18.40;68.50;;;;;;5011190;28;20034;-84
2021/06/30 06:41:41;;;;;;;1.92;0.50;;;18.50;68.40;;;;;;5011925;28;20481;-85
2021/06/30 06:44:08;;;;;;;2.22;0.22;;;18.60;68.30;;;;;;5027197;28;20026;-84
2021/06/30 06:46:34;;;;;;;1.20;0.52;;;18.70;68.20;;;;;;5026690;28;20042;-84
2021/06/30 06:49:00;;;;;;;3.63;0.43;;;18.90;68.10;;;;;;5011848;28;20037;-84
2021/06/30 06:51:26;;;;;;;2.65;0.73;;;19.00;67.80;;;;;;5012571;28;20030;-86
2021/06/30 06:53:52;;;;;;;0.77;0.43;;;19.20;67.50;;;;;;5012419;28;20050;-84
2021/06/30 06:56:24;;;;;;;2.22;0.10;;;19.40;67.30;;;;;;5011925;28;20021;-84
2021/06/30 06:58:50;;;;;;;0.77;0.28;;;19.70;67.00;;;;;;5011895;28;20126;-85
2021/06/30 07:01:16;;;;;;;0.55;0.17;;;19.90;66.50;;;;;;5029040;28;20493;-83
2021/06/30 07:03:43;;;;;;;1.73;0.45;;;20.20;66.10;;;;;;5016014;28;20030;-85
2021/06/30 07:06:09;;;;;;;3.13;0.57;;;20.40;65.90;;;;;;5002887;28;20473;-85
2021/06/30 07:08:35;;;;;;;4.20;0.50;;;20.70;65.50;;;;;;5015849;28;20037;-84
2021/06/30 07:11:01;;;;;;;10.80;1.38;;;20.90;65.30;;;;;;5014514;28;20056;-85
2021/06/30 07:13:27;;;;;;;7.60;0.60;;;21.30;64.90;;;;;;5030814;28;20029;-85
2021/06/30 07:15:53;;;;;;;4.43;0.25;;;21.60;64.40;;;;;;5015415;28;20049;-85
2021/06/30 07:18:19;;;;;;;1.42;0.32;;;21.80;63.90;;;;;;5014413;28;20033;-85
2021/06/30 07:20:45;;;;;;;0.80;0.15;;;22.10;63.50;;;;;;5030634;28;20408;-85
2021/06/30 07:23:12;;;;;;;2.90;0.43;;;22.30;63.30;;;;;;5030769;28;20034;-84
2021/06/30 07:25:38;;;;;;;4.00;0.60;;;22.30;63.20;;;;;;5015442;28;20025;-85
2021/06/30 07:28:05;;;;;;;1.20;0.10;;;22.50;63.20;;;;;;5014419;28;20046;-85
2021/06/30 07:30:31;;;;;;;3.03;0.30;;;22.50;63.20;;;;;;5015358;28;20033;-85
2021/06/30 07:32:57;;;;;;;2.45;0.50;;;22.50;63.20;;;;;;5030281;28;20472;-84
2021/06/30 07:35:23;;;;;;;2.10;0.43;;;22.50;63.20;;;;;;5030519;28;20391;-84
2021/06/30 07:37:49;;;;;;;2.60;0.47;;;22.50;63.20;;;;;;5030622;28;20033;-84
2021/06/30 07:40:15;;;;;;;1.50;0.15;;;22.50;63.30;;;;;;5013288;28;20046;-85
2021/06/30 07:42:41;;;;;;;3.40;0.32;;;22.50;63.50;;;;;;5014815;28;20037;-85
2021/06/30 07:45:08;;;;;;;3.20;0.63;;;22.50;63.70;;;;;;5010018;28;20401;-85
2021/06/30 07:47:35;;;;;;;0.55;0.20;;;22.40;63.60;;;;;;5025702;28;20041;-85
2021/06/30 07:50:02;;;;;;;0.20;0.00;;;22.50;63.80;;;;;;5030259;28;20045;-84
2021/06/30 07:52:28;;;;;;;0.20;0.00;;;22.40;63.70;;;;;;5015003;28;20022;-84
2021/06/30 07:54:54;;;;;;;1.23;0.00;;;22.50;63.70;;;;;;5015329;28;20034;-85
2021/06/30 07:57:20;;;;;;;3.15;0.17;;;22.40;63.70;;;;;;5014140;28;20494;-85
2021/06/30 07:59:46;;;;;;;0.75;0.17;;;22.40;63.80;;;;;;5029477;28;20045;-84
2021/06/30 08:02:12;;;;;;;0.28;0.00;;;22.20;64.10;;;;;;5013274;28;20461;-85
2021/06/30 08:04:38;;;;;;;2.05;0.38;;;22.10;64.20;;;;;;5014932;28;20041;-85
2021/06/30 08:07:05;;;;;;;1.00;0.35;;;22.10;64.40;;;;;;5014833;28;20038;-85
2021/06/30 08:09:33;;;;;;;4.28;0.30;;;22.00;64.50;;;;;;5015140;28;20048;-85
2021/06/30 08:12:01;;;;;;;1.15;0.20;;;21.80;64.70;;;;;;5013517;28;20030;-81
2021/06/30 08:14:27;;;;;;;1.98;0.10;;;21.70;64.90;;;;;;5009866;28;20054;-83
2021/06/30 08:16:54;;;;;;;0.10;0.00;;;21.60;65.20;;;;;;5019153;28;20037;-85
2021/06/30 08:19:20;;;;;;;0.43;0.10;;;21.50;65.40;;;;;;5029675;28;20026;-84
2021/06/30 08:21:46;;;;;;;1.05;0.43;;;21.40;65.60;;;;;;5029729;28;20499;-86
2021/06/30 08:24:12;;;;;;;0.47;0.15;;;21.30;65.70;;;;;;5013278;28;20041;-84
2021/06/30 08:26:39;;;;;;;1.25;0.38;;;21.20;65.90;;;;;;5029518;28;20030;-84
2021/06/30 08:29:05;;;;;;;0.82;0.10;;;21.10;66.00;;;;;;5029041;28;20038;-85
2021/06/30 08:31:31;;;;;;;0.45;0.10;;;21.10;66.00;;;;;;5029033;28;20044;-84
2021/06/30 08:33:57;;;;;;;0.20;0.08;;;21.10;66.00;;;;;;5029734;28;20033;-87
2021/06/30 08:36:23;;;;;;;0.40;0.20;;;21.10;65.90;;;;;;5009952;28;20065;-87
2021/06/30 08:38:49;;;;;;;0.50;0.20;;;21.10;65.80;;;;;;5026819;28;20033;-87
2021/06/30 08:41:20;;;;;;;1.40;0.20;;;21.10;65.80;;;;;;5029423;28;20105;-86
2021/06/30 08:43:47;;;;;;;0.73;0.10;;;21.10;65.90;;;;;;5028685;28;20022;-85
2021/06/30 08:46:19;;;;;;;4.68;0.32;;;21.10;65.90;;;;;;5013523;28;20408;-87
2021/06/30 08:48:45;;;;;;;0.10;0.00;;;21.00;65.80;;;;;;5010124;28;20021;-87
2021/06/30 08:51:25;;;;;;;1.13;0.10;;;21.10;66.60;;;;;;4996306;28;20037;-87
2021/06/30 08:53:53;;;;;;;0.17;0.00;;;21.00;65.80;;;;;;5027818;28;20030;-87
2021/06/30 08:56:20;;;;;;;0.75;0.38;;;21.10;65.80;;;;;;5028884;28;20033;-87
2021/06/30 08:58:49;;;;;;;0.43;0.22;;;21.10;65.70;;;;;;5028841;28;20033;-86
2021/06/30 09:01:16;;;;;;;0.98;0.28;;;21.10;65.60;;;;;;4997155;28;20046;-85
2021/06/30 09:03:49;;;;;;;0.98;0.08;;;21.10;65.60;;;;;;5014213;28;20033;-85
2021/06/30 09:06:17;;;;;;;0.63;0.00;;;21.10;65.80;;;;;;5013656;28;20042;-85
2021/06/30 09:08:43;;;;;;;1.02;0.03;;;21.00;65.70;;;;;;5028776;28;20030;-86
2021/06/30 09:11:12;;;;;;;0.10;0.00;;;21.00;65.80;;;;;;5012540;28;20034;-87
2021/06/30 09:13:39;;;;;;;0.55;0.10;;;21.00;65.80;;;;;;5012295;28;20042;-87
2021/06/30 09:16:05;;;;;;;1.67;0.30;;;21.00;65.80;;;;;;5028218;28;20038;-87
2021/06/30 09:18:37;;;;;;;0.20;0.00;;;21.00;65.70;;;;;;4996550;28;20392;-87
2021/06/30 09:21:19;;;;;;;0.15;0.00;;;21.10;65.80;;;;;;5028070;28;20045;-84
2021/06/30 09:24:03;;;;;;;0.08;0.00;;;21.10;65.80;;;;;;5028355;28;20030;-84
2021/06/30 09:26:32;;;;;;;0.03;0.00;;;21.10;65.80;;;;;;5013366;28;20034;-85
2021/06/30 09:29:04;;;;;;;0.30;0.03;;;21.10;65.70;;;;;;5027359;28;20041;-86
2021/06/30 09:31:31;;;;;;;2.40;0.10;;;21.20;65.60;;;;;;5028246;28;20037;-85
2021/06/30 09:33:57;;;;;;;0.25;0.00;;;21.30;65.50;;;;;;5011931;28;20034;-84
2021/06/30 09:36:25;;;;;;;0.05;0.00;;;21.40;65.30;;;;;;5012369;28;20025;-84
2021/06/30 09:38:52;;;;;;;1.55;0.35;;;21.50;65.10;;;;;;5027986;28;20112;-83
2021/06/30 09:41:27;;;;;;;2.15;0.10;;;21.70;64.80;;;;;;5027817;28;20042;-88
2021/06/30 09:44:11;;;;;;;2.08;0.25;;;21.80;64.60;;;;;;5011998;28;20037;-87
2021/06/30 09:46:38;;;;;;;1.15;0.10;;;21.80;64.50;;;;;;5012506;28;20041;-85
2021/06/30 09:49:08;;;;;;;0.15;0.00;;;21.80;64.50;;;;;;5028289;28;20038;-86
2021/06/30 09:51:35;;;;;;;1.38;0.20;;;21.70;64.50;;;;;;5012183;28;20026;-86
2021/06/30 09:54:09;;;;;;;0.63;0.20;;;21.70;64.80;;;;;;5028026;28;20034;-86
2021/06/30 09:56:38;;;;;;;0.20;0.00;;;21.70;64.80;;;;;;5012346;28;20040;-87
2021/06/30 09:59:14;;;;;;;0.20;0.10;;;21.80;64.80;;;;;;5012606;28;20026;-87
2021/06/30 10:01:40;;;;;;;0.63;0.03;;;21.80;64.50;;;;;;5012194;28;20045;-88
2021/06/30 10:04:06;;;;;;;0.20;0.10;;;21.90;64.40;;;;;;5027824;28;20034;-87
2021/06/30 10:06:34;;;;;;;0.10;0.00;;;22.00;64.40;;;;;;4995973;28;20029;-85
2021/06/30 10:09:03;;;;;;;0.47;0.10;;;22.00;64.40;;;;;;5012731;28;20053;-87
2021/06/30 10:11:29;;;;;;;20.05;6.82;;;22.10;64.20;;;;;;5027079;28;20022;-87
2021/06/30 10:13:55;;;;;;;0.13;0.00;;;22.30;64.00;;;;;;5011478;28;20049;-87
2021/06/30 10:16:22;;;;;;;1.27;0.20;;;22.50;63.70;;;;;;5012245;28;20049;-87
2021/06/30 10:18:53;;;;;;;0.30;0.15;;;22.60;63.30;;;;;;5027909;28;20033;-86
2021/06/30 10:21:24;;;;;;;0.52;0.15;;;22.90;63.10;;;;;;5011187;28;20469;-87
2021/06/30 10:23:50;;;;;;;2.75;0.50;;;23.30;62.50;;;;;;5027303;28;20396;-88
2021/06/30 10:26:18;;;;;;;0.00;0.00;;;23.70;61.80;;;;;;5027051;28;20030;-88
2021/06/30 10:28:51;;;;;;;0.15;0.03;;;24.00;61.10;;;;;;5012187;28;20036;-87
2021/06/30 10:31:17;;;;;;;0.22;0.10;;;24.30;61.30;;;;;;4995509;28;20050;-87
2021/06/30 10:33:45;;;;;;;0.70;0.15;;;24.60;60.20;;;;;;5011828;28;20030;-86
2021/06/30 10:36:11;;;;;;;0.38;0.00;;;24.70;59.90;;;;;;5021453;28;20540;-87
2021/06/30 10:38:55;;;;;;;0.20;0.03;;;24.80;59.80;;;;;;5023430;28;20033;-86
2021/06/30 10:41:41;;;;;;;0.15;0.03;;;24.90;59.80;;;;;;5011705;28;20041;-87
2021/06/30 10:44:11;;;;;;;0.38;0.00;;;25.00;59.60;;;;;;5012062;28;20041;-88
2021/06/30 10:46:37;;;;;;;0.52;0.10;;;25.10;59.60;;;;;;5026504;28;20041;-87
2021/06/30 10:49:26;;;;;;;0.25;0.10;;;25.30;59.60;;;;;;5027397;28;20041;-87
2021/06/30 10:52:02;;;;;;;0.10;0.00;;;25.60;59.30;;;;;;4993907;28;20358;-88
2021/06/30 10:54:31;;;;;;;0.40;0.05;;;25.70;58.90;;;;;;5009855;28;20041;-88
2021/06/30 10:57:23;;;;;;;0.03;0.00;;;25.80;58.90;;;;;;5011976;28;20034;-88
2021/06/30 11:00:02;;;;;;;0.00;0.00;;;25.70;58.80;;;;;;5027162;28;20396;-87
2021/06/30 11:02:33;;;;;;;0.35;0.00;;;25.70;58.90;;;;;;5011078;28;20034;-87
2021/06/30 11:05:19;;;;;;;0.13;0.10;;;25.80;58.70;;;;;;5010854;28;20043;-85
2021/06/30 11:07:45;;;;;;;0.00;0.00;;;25.90;58.50;;;;;;5011295;28;20038;-88
2021/06/30 11:10:20;;;;;;;0.13;0.00;;;26.00;58.30;;;;;;5026659;28;20408;-87
2021/06/30 11:12:56;;;;;;;0.00;0.00;;;26.00;58.20;;;;;;5008816;28;20034;-86
2021/06/30 11:15:38;;;;;;;1.55;0.17;;;26.00;58.10;;;;;;5011672;28;20050;-85
2021/06/30 11:18:13;;;;;;;0.15;0.00;;;26.10;58.00;;;;;;5012039;28;20484;-87
2021/06/30 11:20:48;;;;;;;0.00;0.00;;;26.30;57.80;;;;;;5011607;28;20057;-87
2021/06/30 11:23:22;;;;;;;0.45;0.00;;;26.50;57.40;;;;;;5026302;28;20033;-88
2021/06/30 11:25:49;;;;;;;0.32;0.20;;;26.60;57.20;;;;;;4978586;28;20397;-87
2021/06/30 11:28:35;;;;;;;0.25;0.00;;;26.70;57.00;;;;;;5011789;28;20033;-87
2021/06/30 11:31:27;;;;;;;0.90;0.22;;;26.80;56.90;;;;;;5026229;28;20038;-88
2021/06/30 11:34:11;;;;;;;0.20;0.10;;;27.00;56.60;;;;;;5009459;28;20037;-87
2021/06/30 11:36:37;;;;;;;0.30;0.10;;;27.10;56.40;;;;;;5010966;28;20038;-87
2021/06/30 11:39:12;;;;;;;0.25;0.10;;;27.30;56.30;;;;;;5026684;28;20028;-87
2021/06/30 11:41:46;;;;;;;0.30;0.15;;;27.40;56.10;;;;;;5026634;28;20381;-88
2021/06/30 11:44:12;;;;;;;0.50;0.28;;;27.50;56.00;;;;;;5026663;28;20026;-87
2021/06/30 11:46:42;;;;;;;0.17;0.10;;;27.50;56.00;;;;;;5011255;28;20057;-85
2021/06/30 11:49:10;;;;;;;0.40;0.10;;;27.60;55.90;;;;;;5030132;28;20022;-86
2021/06/30 11:51:36;;;;;;;0.10;0.00;;;27.50;55.70;;;;;;5014446;28;20038;-85
2021/06/30 11:54:02;;;;;;;0.68;0.10;;;27.40;55.80;;;;;;5030387;28;20034;-85
2021/06/30 11:56:31;;;;;;;0.55;0.00;;;27.40;56.00;;;;;;5030096;28;20038;-86
2021/06/30 11:58:58;;;;;;;0.98;0.10;;;27.30;55.90;;;;;;5014921;28;20026;-84
2021/06/30 12:01:29;;;;;;;1.65;0.45;;;27.30;55.90;;;;;;5029374;28;20045;-85
2021/06/30 12:04:15;;;;;;;0.10;0.00;;;27.10;55.90;;;;;;5030211;28;20038;-86
2021/06/30 12:06:42;;;;;;;69.15;24.85;;;26.90;55.90;;;;;;5030382;28;20484;-86
2021/06/30 12:09:12;;;;;;;53.38;10.85;;;26.70;56.10;;;;;;5013057;28;20580;-85
2021/06/30 12:11:40;;;;;;;5.40;2.72;;;26.60;56.40;;;;;;5014588;28;20397;-85
2021/06/30 12:14:25;;;;;;;0.05;0.00;;;26.40;56.60;;;;;;5012870;28;20033;-87
2021/06/30 12:16:55;;;;;;;0.10;0.00;;;26.10;56.70;;;;;;5029281;28;20041;-87
2021/06/30 12:19:32;;;;;;;1.35;0.47;;;25.90;56.90;;;;;;5029849;28;20029;-87
2021/06/30 12:21:59;;;;;;;0.55;0.17;;;25.70;57.10;;;;;;5029139;28;20045;-86
2021/06/30 12:24:25;;;;;;;0.20;0.10;;;25.50;57.20;;;;;;5013796;28;20030;-87
2021/06/30 12:26:57;;;;;;;0.52;0.10;;;25.30;57.30;;;;;;5029509;28;20037;-87
2021/06/30 12:29:23;;;;;;;1.17;0.20;;;25.10;57.40;;;;;;5029534;28;20053;-87
2021/06/30 12:31:49;;;;;;;2.58;0.30;;;24.90;57.50;;;;;;5029008;28;20030;-86
2021/06/30 12:34:15;;;;;;;0.10;0.10;;;24.80;57.60;;;;;;5014411;28;20033;-86
2021/06/30 12:36:42;;;;;;;0.30;0.10;;;24.70;57.70;;;;;;5013283;28;20040;-86
2021/06/30 12:39:25;;;;;;;0.40;0.22;;;24.50;57.60;;;;;;5029591;28;20393;-88
2021/06/30 12:42:13;;;;;;;0.25;0.10;;;24.40;57.80;;;;;;5029411;28;20042;-86
2021/06/30 12:44:58;;;;;;;0.22;0.15;;;24.30;57.80;;;;;;5009070;28;20050;-86
2021/06/30 12:47:25;;;;;;;0.17;0.10;;;24.30;57.80;;;;;;4988483;28;20035;-87
2021/06/30 12:50:07;;;;;;;0.20;0.00;;;24.30;57.60;;;;;;4994379;28;20022;-87